createdAt,value
2022-07-29T00:01:56.049Z,74.33
2022-07-29T00:04:26.693Z,74.67
2022-07-29T00:06:54.564Z,74.48
2022-07-29T00:09:28.963Z,75.29
2022-07-29T00:11:59.435Z,74.91
2022-07-29T00:14:29.833Z,74.97
2022-07-29T00:17:00.229Z,75.29
2022-07-29T00:19:30.371Z,75.00
2022-07-29T00:22:06.199Z,75.47
2022-07-29T00:24:33.776Z,76.37
2022-07-29T00:27:06.750Z,75.76
2022-07-29T00:29:35.099Z,75.66
2022-07-29T00:32:06.224Z,76.23
2022-07-29T00:34:36.656Z,76.08
2022-07-29T00:37:04.584Z,75.87
2022-07-29T00:39:37.870Z,75.97
2022-07-29T00:42:07.211Z,76.28
2022-07-29T00:44:41.938Z,76.67
2022-07-29T00:47:13.588Z,76.99
2022-07-29T00:49:49.376Z,76.98
2022-07-29T00:52:17.138Z,76.88
2022-07-29T00:54:47.368Z,77.38
2022-07-29T00:57:15.861Z,77.34
2022-07-29T00:59:45.962Z,77.64
2022-07-29T01:02:13.333Z,77.46
2022-07-29T01:04:43.306Z,77.04
2022-07-29T01:07:11.295Z,78.71
2022-07-29T01:09:45.248Z,77.60
2022-07-29T01:12:28.275Z,77.45
2022-07-29T01:14:57.370Z,77.59
2022-07-29T01:17:39.953Z,77.95
2022-07-29T01:20:38.372Z,78.86
2022-07-29T01:23:11.991Z,78.75
2022-07-29T01:26:16.689Z,80.35
2022-07-29T01:29:14.761Z,78.09
2022-07-29T01:31:59.316Z,74.45
2022-07-29T01:34:53.710Z,73.14
2022-07-29T01:37:30.386Z,72.87
2022-07-29T01:40:11.395Z,73.21
2022-07-29T01:42:49.080Z,71.61
2022-07-29T01:45:33.108Z,71.86
2022-07-29T01:48:26.762Z,71.75
2022-07-29T01:51:20.356Z,71.42
2022-07-29T01:54:17.377Z,72.53
2022-07-29T01:56:48.015Z,73.54
2022-07-29T01:59:18.688Z,72.53
2022-07-29T02:01:54.664Z,72.27
2022-07-29T02:04:29.966Z,73.07
2022-07-29T02:07:02.863Z,73.19
2022-07-29T02:09:32.670Z,73.01
2022-07-29T02:12:05.096Z,72.28
2022-07-29T02:14:38.655Z,71.78
2022-07-29T02:17:08.995Z,73.20
2022-07-29T02:19:44.175Z,72.06
2022-07-29T02:22:17.674Z,72.69
2022-07-29T02:24:49.962Z,72.45
2022-07-29T02:27:24.570Z,73.63
2022-07-29T02:29:56.396Z,72.25
2022-07-29T02:32:26.995Z,72.03
2022-07-29T02:35:02.424Z,73.24
2022-07-29T02:37:31.899Z,72.23
2022-07-29T02:40:00.575Z,72.68
2022-07-29T02:42:29.486Z,73.70
2022-07-29T02:44:57.385Z,73.59
2022-07-29T02:47:41.539Z,73.42
2022-07-29T02:50:18.461Z,72.43
2022-07-29T02:52:53.331Z,72.55
2022-07-29T02:55:34.389Z,72.65
2022-07-29T02:58:11.079Z,73.53
2022-07-29T03:00:40.141Z,73.01
2022-07-29T03:03:15.994Z,73.21
2022-07-29T03:05:43.761Z,73.27
2022-07-29T03:08:16.799Z,73.33
2022-07-29T03:10:47.369Z,73.61
2022-07-29T03:13:16.291Z,72.00
2022-07-29T03:15:45.827Z,73.01
2022-07-29T03:18:14.410Z,73.44
2022-07-29T03:20:42.892Z,72.77
2022-07-29T03:23:12.801Z,71.46
2022-07-29T03:25:47.687Z,72.59
2022-07-29T03:28:15.244Z,73.25
2022-07-29T03:30:44.578Z,74.96
2022-07-29T03:33:13.376Z,74.23
2022-07-29T03:35:46.796Z,74.19
2022-07-29T03:38:16.720Z,73.04
2022-07-29T03:40:49.783Z,74.89
2022-07-29T03:43:23.870Z,74.78
2022-07-29T03:45:58.145Z,74.87
2022-07-29T03:48:33.801Z,74.14
2022-07-29T03:51:02.785Z,72.50
2022-07-29T03:53:50.857Z,73.84
2022-07-29T03:56:22.009Z,73.57
2022-07-29T03:58:53.808Z,72.43
2022-07-29T04:01:22.742Z,73.19
2022-07-29T04:03:51.317Z,74.29
2022-07-29T04:06:22.124Z,74.57
2022-07-29T04:08:53.630Z,75.01
2022-07-29T04:11:22.245Z,73.69
2022-07-29T04:13:50.185Z,73.27
2022-07-29T04:16:24.612Z,73.02
2022-07-29T04:18:55.958Z,72.08
2022-07-29T04:21:24.372Z,72.45
2022-07-29T04:23:55.492Z,72.92
2022-07-29T04:26:26.247Z,73.61
2022-07-29T04:28:53.625Z,73.36
2022-07-29T04:31:27.884Z,72.62
2022-07-29T04:33:55.320Z,72.40
2022-07-29T04:36:29.241Z,72.51
2022-07-29T04:38:57.760Z,72.24
2022-07-29T04:41:33.220Z,72.74
2022-07-29T04:44:01.748Z,71.14
2022-07-29T04:46:35.998Z,71.62
2022-07-29T04:49:06.344Z,73.66
2022-07-29T04:51:33.835Z,71.87
2022-07-29T04:54:07.201Z,70.70
2022-07-29T04:56:34.973Z,72.23
2022-07-29T04:59:04.670Z,71.31
2022-07-29T05:01:35.929Z,73.58
2022-07-29T05:04:04.079Z,71.27
2022-07-29T05:06:31.856Z,71.36
2022-07-29T05:09:02.929Z,70.31
2022-07-29T05:11:31.109Z,68.86
2022-07-29T05:14:03.764Z,70.53
2022-07-29T05:16:36.933Z,69.78
2022-07-29T05:19:14.187Z,69.98
2022-07-29T05:21:45.292Z,69.13
2022-07-29T05:24:15.792Z,69.88
2022-07-29T05:26:49.099Z,70.14
2022-07-29T05:29:43.095Z,70.65
2022-07-29T05:32:10.288Z,69.60
2022-07-29T05:34:51.124Z,68.92
2022-07-29T05:37:22.124Z,68.13
2022-07-29T05:39:56.268Z,68.44
2022-07-29T05:42:27.765Z,68.24
2022-07-29T05:45:01.790Z,67.32
2022-07-29T05:47:32.485Z,67.02
2022-07-29T05:50:00.115Z,67.05
2022-07-29T05:52:27.827Z,66.43
2022-07-29T05:54:55.274Z,66.81
2022-07-29T05:57:28.954Z,66.39
2022-07-29T05:59:56.326Z,66.24
2022-07-29T06:02:23.880Z,66.33
2022-07-29T06:04:52.886Z,67.21
2022-07-29T06:07:20.382Z,66.58
2022-07-29T06:09:50.866Z,67.18
2022-07-29T06:12:23.749Z,66.85
2022-07-29T06:14:55.955Z,66.77
2022-07-29T06:17:26.366Z,65.41
2022-07-29T06:20:00.440Z,66.58
2022-07-29T06:22:34.166Z,65.30
2022-07-29T06:25:05.417Z,65.43
2022-07-29T06:27:36.337Z,65.26
2022-07-29T06:30:08.651Z,66.10
2022-07-29T06:32:43.331Z,65.15
2022-07-29T06:35:38.868Z,65.24
2022-07-29T06:38:03.878Z,65.71
2022-07-29T06:40:44.044Z,64.29
2022-07-29T06:43:11.957Z,65.05
2022-07-29T06:45:42.755Z,64.52
2022-07-29T06:48:22.024Z,64.45
2022-07-29T06:50:53.919Z,64.58
2022-07-29T06:53:26.664Z,64.04
2022-07-29T06:55:54.240Z,64.17
2022-07-29T06:58:30.548Z,63.53
2022-07-29T07:01:03.951Z,63.07
2022-07-29T07:03:40.291Z,62.45
2022-07-29T07:06:14.944Z,62.97
2022-07-29T07:08:46.278Z,62.23
2022-07-29T07:11:16.529Z,62.52
2022-07-29T07:13:50.135Z,63.09
2022-07-29T07:16:17.628Z,62.62
2022-07-29T07:18:45.526Z,61.88
2022-07-29T07:21:21.802Z,62.22
2022-07-29T07:23:52.761Z,61.65
2022-07-29T07:26:26.363Z,60.84
2022-07-29T07:28:57.749Z,60.97
2022-07-29T07:31:28.355Z,60.84
2022-07-29T07:33:55.988Z,60.79
2022-07-29T07:36:29.015Z,60.25
2022-07-29T07:38:57.013Z,59.62
2022-07-29T07:41:27.073Z,58.53
2022-07-29T07:44:07.746Z,59.64
2022-07-29T07:46:39.255Z,58.87
2022-07-29T07:49:13.652Z,57.04
2022-07-29T07:51:50.792Z,58.65
2022-07-29T07:54:21.626Z,57.50
2022-07-29T07:56:53.374Z,58.02
2022-07-29T07:59:30.550Z,56.70
2022-07-29T08:02:07.341Z,57.03
2022-07-29T08:04:38.297Z,58.05
2022-07-29T08:07:07.260Z,58.29
2022-07-29T08:09:37.572Z,56.29
2022-07-29T08:12:08.667Z,56.78
2022-07-29T08:14:38.561Z,56.88
2022-07-29T08:17:09.053Z,56.79
2022-07-29T08:19:39.729Z,55.81
2022-07-29T08:22:10.717Z,55.45
2022-07-29T08:24:40.638Z,54.89
2022-07-29T08:27:33.511Z,53.43
2022-07-29T08:30:04.321Z,52.35
2022-07-29T08:32:53.151Z,54.13
2022-07-29T08:35:30.938Z,53.96
2022-07-29T08:38:06.292Z,53.82
2022-07-29T08:40:37.206Z,54.42
2022-07-29T08:43:10.893Z,56.49
2022-07-29T08:45:50.246Z,52.79
2022-07-29T08:48:19.902Z,52.81
2022-07-29T08:50:56.577Z,53.82
2022-07-29T08:53:30.672Z,53.86
2022-07-29T08:55:59.321Z,53.55
2022-07-29T08:58:30.791Z,52.73
2022-07-29T09:01:04.033Z,52.42
2022-07-29T09:03:37.453Z,53.55
2022-07-29T09:06:05.559Z,52.27
2022-07-29T09:08:35.528Z,52.25
2022-07-29T09:11:08.038Z,51.21
2022-07-29T09:13:35.804Z,51.17
2022-07-29T09:16:09.535Z,49.86
2022-07-29T09:18:44.453Z,47.21
2022-07-29T09:21:18.089Z,47.76
2022-07-29T09:24:11.829Z,48.03
2022-07-29T09:26:46.950Z,47.36
2022-07-29T09:29:22.028Z,45.67
2022-07-29T09:31:58.676Z,43.48
2022-07-29T09:34:29.803Z,43.46
2022-07-29T09:36:57.651Z,44.86
2022-07-29T09:39:32.713Z,44.54
2022-07-29T09:42:08.265Z,45.12
2022-07-29T09:44:49.436Z,45.76
2022-07-29T09:47:18.474Z,44.76
2022-07-29T09:49:55.576Z,45.11
2022-07-29T09:52:30.954Z,44.72
2022-07-29T09:55:18.090Z,42.97
2022-07-29T09:57:49.454Z,43.94
2022-07-29T10:00:20.085Z,42.95
2022-07-29T10:02:51.921Z,43.88
2022-07-29T10:05:36.276Z,42.43
2022-07-29T10:08:25.595Z,40.76
2022-07-29T10:11:10.899Z,41.30
2022-07-29T10:13:39.305Z,42.66
2022-07-29T10:16:07.665Z,42.05
2022-07-29T10:18:35.560Z,42.44
2022-07-29T10:21:06.842Z,44.37
2022-07-29T10:23:46.203Z,42.56
2022-07-29T10:26:22.336Z,42.87
2022-07-29T10:28:57.297Z,43.15
2022-07-29T10:31:40.093Z,41.52
2022-07-29T10:34:54.913Z,40.89
2022-07-29T10:38:00.215Z,39.70
2022-07-29T10:40:44.366Z,39.41
2022-07-29T10:43:23.171Z,39.65
2022-07-29T10:46:00.225Z,40.37
2022-07-29T10:48:28.041Z,40.83
2022-07-29T10:51:01.262Z,40.63
2022-07-29T10:53:49.084Z,41.68
2022-07-29T10:56:33.647Z,41.59
2022-07-29T10:59:20.144Z,40.75
2022-07-29T11:02:27.797Z,43.59
2022-07-29T11:05:06.604Z,41.75
2022-07-29T11:08:20.279Z,41.81
2022-07-29T11:10:52.875Z,41.02
2022-07-29T11:13:44.504Z,41.93
2022-07-29T11:16:18.017Z,40.67
2022-07-29T11:19:33.901Z,40.66
2022-07-29T11:22:09.012Z,39.69
2022-07-29T11:24:49.337Z,40.14
2022-07-29T11:27:23.703Z,39.42
2022-07-29T11:30:03.425Z,38.89
2022-07-29T11:32:44.594Z,39.35
2022-07-29T11:35:37.058Z,40.14
2022-07-29T11:38:28.106Z,40.69
2022-07-29T11:41:21.741Z,40.26
2022-07-29T11:43:54.495Z,40.03
2022-07-29T11:46:54.274Z,40.57
2022-07-29T11:49:32.541Z,40.76
2022-07-29T11:55:09.778Z,40.32
2022-07-29T11:58:10.747Z,39.99
2022-07-29T12:00:42.952Z,40.51
2022-07-29T12:03:33.300Z,39.93
2022-07-29T12:06:15.256Z,40.43
2022-07-29T12:08:47.561Z,40.33
2022-07-29T12:11:21.751Z,40.38
2022-07-29T12:13:51.216Z,40.13
2022-07-29T12:16:26.149Z,40.11
2022-07-29T12:19:06.215Z,40.00
2022-07-29T12:21:59.497Z,40.37
2022-07-29T12:24:46.306Z,40.01
2022-07-29T12:27:18.720Z,40.55
2022-07-29T12:30:13.832Z,40.23
2022-07-29T12:32:50.164Z,40.60
2022-07-29T12:35:35.046Z,39.46
2022-07-29T12:38:05.184Z,38.79
2022-07-29T12:40:39.493Z,39.44
2022-07-29T12:43:17.892Z,38.89
2022-07-29T12:45:57.499Z,39.80
2022-07-29T12:48:42.675Z,38.56
2022-07-29T12:51:13.563Z,38.59
2022-07-29T12:54:21.406Z,38.96
2022-07-29T12:57:01.954Z,39.79
2022-07-29T12:59:32.538Z,39.42
2022-07-29T13:02:03.014Z,39.44
2022-07-29T13:04:35.134Z,39.36
2022-07-29T13:07:06.640Z,39.50
2022-07-29T13:09:45.409Z,38.62
2022-07-29T13:12:16.847Z,38.40
2022-07-29T13:14:54.447Z,38.77
2022-07-29T13:17:26.682Z,38.21
2022-07-29T13:20:20.401Z,38.58
2022-07-29T13:23:20.207Z,39.09
2022-07-29T13:26:02.953Z,38.50
2022-07-29T13:28:30.328Z,38.61
2022-07-29T13:31:16.183Z,38.10
2022-07-29T13:34:08.670Z,37.84
2022-07-29T13:36:55.576Z,37.67
2022-07-29T13:39:55.456Z,37.72
2022-07-29T13:42:45.590Z,37.77
2022-07-29T13:45:33.358Z,37.78
2022-07-29T13:48:05.686Z,37.13
2022-07-29T13:50:36.924Z,37.13
2022-07-29T13:53:07.666Z,37.00
2022-07-29T13:55:43.703Z,37.14
2022-07-29T13:58:16.970Z,37.10
2022-07-29T14:00:47.392Z,36.93
2022-07-29T14:03:14.828Z,36.91
2022-07-29T14:05:48.189Z,36.78
2022-07-29T14:08:24.964Z,36.38
2022-07-29T14:10:55.678Z,36.07
2022-07-29T14:13:29.034Z,36.10
2022-07-29T14:15:59.724Z,35.85
2022-07-29T14:18:30.338Z,35.84
2022-07-29T14:21:04.970Z,36.37
2022-07-29T14:23:32.362Z,35.94
2022-07-29T14:26:03.776Z,35.15
2022-07-29T14:28:41.925Z,35.46
2022-07-29T14:31:13.092Z,35.14
2022-07-29T14:33:46.258Z,35.32
2022-07-29T14:36:19.831Z,35.75
2022-07-29T14:38:52.289Z,35.56
2022-07-29T14:41:19.826Z,34.42
2022-07-29T14:43:50.891Z,35.48
2022-07-29T14:46:26.629Z,34.80
2022-07-29T14:48:54.545Z,35.19
2022-07-29T14:51:22.515Z,35.63
2022-07-29T14:53:55.459Z,35.84
2022-07-29T14:56:46.682Z,35.08
2022-07-29T14:59:25.639Z,34.41
2022-07-29T15:01:57.056Z,34.21
2022-07-29T15:04:25.577Z,34.85
2022-07-29T15:06:56.712Z,34.99
2022-07-29T15:09:31.117Z,34.28
2022-07-29T15:12:02.015Z,34.69
2022-07-29T15:14:32.364Z,34.98
2022-07-29T15:17:00.080Z,34.66
2022-07-29T15:19:28.025Z,34.89
2022-07-29T15:21:59.249Z,35.15
2022-07-29T15:24:27.253Z,35.71
2022-07-29T15:26:55.405Z,34.30
2022-07-29T15:29:23.261Z,34.26
2022-07-29T15:31:50.904Z,34.35
2022-07-29T15:34:30.848Z,34.90
2022-07-29T15:36:58.712Z,35.48
2022-07-29T15:39:28.965Z,34.61
2022-07-29T15:42:00.137Z,35.29
2022-07-29T15:44:31.436Z,35.31
2022-07-29T15:46:59.987Z,35.47
2022-07-29T15:49:30.951Z,35.07
2022-07-29T15:52:25.710Z,34.99
2022-07-29T15:54:57.191Z,35.59
2022-07-29T15:57:25.891Z,35.12
2022-07-29T15:59:53.551Z,34.18
2022-07-29T16:02:24.320Z,34.59
2022-07-29T16:04:51.802Z,34.12
2022-07-29T16:07:19.348Z,34.82
2022-07-29T16:09:52.427Z,34.06
2022-07-29T16:12:20.210Z,34.51
2022-07-29T16:14:50.648Z,34.84
2022-07-29T16:17:19.072Z,34.66
2022-07-29T16:19:46.815Z,34.82
2022-07-29T16:22:14.250Z,35.79
2022-07-29T16:24:41.934Z,35.57
2022-07-29T16:27:11.890Z,35.61
2022-07-29T16:29:39.410Z,35.39
2022-07-29T16:32:09.705Z,35.77
2022-07-29T16:34:37.103Z,35.11
2022-07-29T16:37:05.143Z,35.59
2022-07-29T16:39:32.940Z,35.29
2022-07-29T16:42:03.934Z,34.63
2022-07-29T16:44:33.890Z,36.64
2022-07-29T16:47:04.776Z,35.92
2022-07-29T16:49:32.530Z,36.14
2022-07-29T16:52:00.360Z,36.48
2022-07-29T16:54:28.842Z,36.15
2022-07-29T16:56:56.997Z,35.72
2022-07-29T16:59:25.145Z,36.11
2022-07-29T17:01:52.752Z,36.59
2022-07-29T17:04:20.432Z,37.19
2022-07-29T17:06:50.382Z,37.82
2022-07-29T17:09:21.421Z,36.10
2022-07-29T17:11:52.629Z,37.87
2022-07-29T17:14:30.207Z,38.20
2022-07-29T17:17:02.489Z,39.16
2022-07-29T17:19:33.704Z,38.18
2022-07-29T17:22:10.417Z,38.93
2022-07-29T17:24:40.271Z,38.73
2022-07-29T17:27:11.417Z,38.92
2022-07-29T17:29:40.268Z,37.73
2022-07-29T17:32:09.342Z,36.91
2022-07-29T17:34:37.938Z,37.61
2022-07-29T17:37:07.939Z,38.06
2022-07-29T17:39:40.417Z,38.17
2022-07-29T17:42:14.319Z,37.93
2022-07-29T17:44:47.970Z,38.54
2022-07-29T17:47:18.770Z,38.65
2022-07-29T17:50:05.147Z,39.04
2022-07-29T17:52:40.369Z,39.21
2022-07-29T17:55:12.439Z,39.50
2022-07-29T17:57:49.091Z,39.50
2022-07-29T18:00:26.285Z,39.40
2022-07-29T18:03:00.870Z,39.89
2022-07-29T18:05:35.350Z,40.25
2022-07-29T18:08:06.626Z,40.81
2022-07-29T18:10:37.530Z,40.88
2022-07-29T18:13:05.101Z,41.08
2022-07-29T18:15:33.331Z,41.24
2022-07-29T18:18:01.300Z,42.11
2022-07-29T18:20:29.044Z,43.64
2022-07-29T18:23:01.264Z,42.84
2022-07-29T18:25:35.320Z,43.33
2022-07-29T18:28:08.932Z,43.23
2022-07-29T18:30:43.153Z,43.68
2022-07-29T18:33:21.149Z,44.08
2022-07-29T18:35:51.656Z,44.08
2022-07-29T18:38:22.599Z,44.59
2022-07-29T18:40:50.822Z,44.63
2022-07-29T18:43:18.485Z,44.87
2022-07-29T18:45:46.578Z,45.83
2022-07-29T18:48:14.197Z,45.70
2022-07-29T18:50:48.246Z,45.66
2022-07-29T18:53:18.554Z,45.67
2022-07-29T18:55:51.969Z,46.04
2022-07-29T18:58:19.444Z,46.39
2022-07-29T19:00:50.657Z,45.86
2022-07-29T19:03:21.440Z,46.71
2022-07-29T19:05:52.028Z,46.22
2022-07-29T19:08:22.638Z,46.43
2022-07-29T19:10:56.975Z,46.37
2022-07-29T19:13:31.343Z,46.48
2022-07-29T19:15:59.188Z,46.96
2022-07-29T19:18:30.436Z,46.70
2022-07-29T19:21:06.499Z,47.10
2022-07-29T19:24:01.730Z,47.02
2022-07-29T19:26:31.495Z,47.04
2022-07-29T19:29:05.814Z,47.11
2022-07-29T19:31:44.422Z,47.32
2022-07-29T19:34:15.513Z,47.14
2022-07-29T19:36:58.884Z,47.54
2022-07-29T19:39:35.934Z,47.51
2022-07-29T19:45:03.924Z,47.86
2022-07-29T19:47:35.219Z,47.86
2022-07-29T19:50:10.354Z,47.85
2022-07-29T19:52:41.792Z,47.72
2022-07-29T19:55:16.536Z,48.62
2022-07-29T19:57:54.003Z,48.15
2022-07-29T20:03:28.042Z,48.46
2022-07-29T20:05:55.972Z,48.20
2022-07-29T20:08:38.461Z,48.41
2022-07-29T20:11:15.518Z,48.23
2022-07-29T20:13:53.673Z,48.21
2022-07-29T20:16:32.078Z,48.70
2022-07-29T20:19:09.182Z,48.54
2022-07-29T20:21:43.364Z,48.28
2022-07-29T20:24:16.997Z,48.43
2022-07-29T20:26:55.479Z,48.81
2022-07-29T20:29:23.925Z,48.44
2022-07-29T20:32:01.557Z,48.30
2022-07-29T20:34:40.879Z,48.28
2022-07-29T20:37:23.336Z,48.79
2022-07-29T20:39:57.494Z,48.58
2022-07-29T20:42:35.655Z,48.82
2022-07-29T20:45:16.953Z,48.85
2022-07-29T20:48:06.395Z,48.58
2022-07-29T20:51:02.073Z,48.70
2022-07-29T20:53:41.134Z,48.88
2022-07-29T20:56:18.684Z,48.74
2022-07-29T20:58:53.933Z,49.17
2022-07-29T21:01:31.547Z,49.42
2022-07-29T21:04:27.103Z,49.10
2022-07-29T21:10:14.838Z,49.36
2022-07-29T21:12:43.826Z,49.37
2022-07-29T21:15:16.923Z,49.83
2022-07-29T21:17:49.014Z,49.63
2022-07-29T21:20:22.434Z,49.62
2022-07-29T21:22:50.029Z,50.21
2022-07-29T21:25:19.253Z,50.08
2022-07-29T21:27:52.176Z,50.52
2022-07-29T21:30:22.446Z,50.95
2022-07-29T21:32:54.836Z,50.90
2022-07-29T21:36:06.242Z,51.13
2022-07-29T21:38:14.509Z,51.41
2022-07-29T21:40:49.485Z,51.25
2022-07-29T21:43:20.786Z,51.92
2022-07-29T21:45:54.168Z,52.05
2022-07-29T21:48:26.541Z,52.35
2022-07-29T21:50:55.285Z,52.85
2022-07-29T21:56:14.748Z,53.19
2022-07-29T21:58:44.009Z,53.47
2022-07-29T22:01:14.967Z,53.70
2022-07-29T22:03:45.133Z,54.03
2022-07-29T22:06:18.611Z,54.10
2022-07-29T22:08:48.567Z,55.00
2022-07-29T22:11:20.203Z,55.38
2022-07-29T22:13:48.228Z,55.52
2022-07-29T22:16:15.939Z,55.56
2022-07-29T22:18:46.409Z,55.98
2022-07-29T22:21:17.535Z,56.73
2022-07-29T22:23:48.295Z,56.89
2022-07-29T22:26:16.906Z,57.40
2022-07-29T22:28:44.365Z,57.89
2022-07-29T22:31:12.100Z,58.08
2022-07-29T22:33:39.520Z,58.99
2022-07-29T22:36:07.303Z,59.06
2022-07-29T22:38:35.135Z,59.60
2022-07-29T22:41:08.071Z,59.93
2022-07-29T22:43:35.921Z,60.52
2022-07-29T22:46:03.918Z,60.86
2022-07-29T22:48:31.290Z,61.74
2022-07-29T22:50:58.870Z,62.79
2022-07-29T22:53:26.869Z,63.69
2022-07-29T22:55:54.685Z,64.01
2022-07-29T22:58:22.253Z,64.64
2022-07-29T23:00:49.803Z,65.55
2022-07-29T23:03:17.290Z,65.71
2022-07-29T23:05:44.693Z,66.33
2022-07-29T23:08:12.303Z,66.86
2022-07-29T23:10:40.182Z,67.22
2022-07-29T23:13:08.040Z,67.32
2022-07-29T23:15:35.663Z,68.01
2022-07-29T23:18:03.531Z,67.55
2022-07-29T23:20:31.125Z,68.13
2022-07-29T23:22:58.508Z,67.73
2022-07-29T23:25:25.875Z,68.04
2022-07-29T23:27:53.495Z,68.68
2022-07-29T23:30:20.953Z,68.62
2022-07-29T23:32:48.666Z,69.20
2022-07-29T23:35:16.160Z,69.19
2022-07-29T23:37:49.539Z,69.38
2022-07-29T23:40:17.131Z,69.58
2022-07-29T23:42:44.827Z,69.62
2022-07-29T23:45:13.308Z,69.69
2022-07-29T23:47:42.534Z,69.24
2022-07-29T23:50:11.303Z,69.52
2022-07-29T23:52:41.704Z,70.01
2022-07-29T23:55:37.431Z,69.49
2022-07-29T23:57:58.173Z,69.53
